Time;durP1;ratioP1;P1;durP2;ratioP2;P2;SDS_P1;SDS_P2;PMS_P1;PMS_P2;Temp;Humidity;BMP_temperature;BMP_pressure;BME280_temperature;BME280_humidity;BME280_pressure;Samples;Min_cycle;Max_cycle;Signal;HPM_P1;HPM_P2
2022/09/14 00:01:51;;;;;;;9.57;2.03;;;21.30;99.90;;;;;;5072743;28;20051;-83
2022/09/14 00:04:18;;;;;;;14.68;2.08;;;21.30;99.90;;;;;;5072945;28;20501;-82
2022/09/14 00:06:46;;;;;;;8.23;1.45;;;21.30;99.90;;;;;;5071206;28;20024;-81
2022/09/14 00:09:23;;;;;;;12.13;2.55;;;21.30;99.90;;;;;;5072968;28;20420;-82
2022/09/14 00:11:50;;;;;;;10.00;2.17;;;21.20;99.90;;;;;;5072448;28;20031;-81
2022/09/14 00:14:16;;;;;;;10.40;2.25;;;21.20;99.90;;;;;;5072821;28;20036;-81
2022/09/14 00:16:43;;;;;;;13.70;2.00;;;21.20;99.90;;;;;;5072756;28;20505;-82
2022/09/14 00:19:22;;;;;;;7.00;1.80;;;21.20;99.90;;;;;;5072571;28;20062;-82
2022/09/14 00:21:55;;;;;;;9.27;2.40;;;21.20;99.90;;;;;;5072422;28;20025;-81
2022/09/14 00:24:22;;;;;;;12.52;2.05;;;21.20;99.90;;;;;;5072391;28;20016;-81
2022/09/14 00:26:48;;;;;;;8.63;1.50;;;21.20;99.90;;;;;;5071914;28;20598;-81
2022/09/14 00:29:14;;;;;;;8.50;1.48;;;21.20;99.90;;;;;;5072524;28;20017;-81
2022/09/14 00:31:40;;;;;;;10.25;1.65;;;21.20;99.90;;;;;;5072369;28;20410;-81
2022/09/14 00:34:08;;;;;;;8.32;1.75;;;21.20;99.90;;;;;;5072219;28;20056;-82
2022/09/14 00:36:43;;;;;;;8.20;1.52;;;21.20;99.90;;;;;;5072424;28;20086;-81
2022/09/14 00:39:10;;;;;;;15.43;1.77;;;21.20;99.90;;;;;;5072125;28;20024;-81
2022/09/14 00:41:39;;;;;;;11.45;1.85;;;21.20;99.90;;;;;;5071513;28;20035;-81
2022/09/14 00:44:10;;;;;;;9.73;1.73;;;21.20;99.90;;;;;;5071824;28;20417;-81
2022/09/14 00:46:42;;;;;;;9.07;2.00;;;21.20;99.90;;;;;;5071807;28;20035;-81
2022/09/14 00:49:31;;;;;;;8.95;1.50;;;21.20;99.90;;;;;;5069113;28;20394;-81
2022/09/14 00:52:18;;;;;;;10.32;1.77;;;21.20;99.90;;;;;;5068185;28;20032;-81
2022/09/14 00:54:51;;;;;;;5.53;1.80;;;21.10;99.90;;;;;;5071320;28;20239;-81
2022/09/14 00:57:18;;;;;;;11.77;1.67;;;21.00;99.90;;;;;;5071627;28;20031;-81
2022/09/14 00:59:47;;;;;;;13.93;2.00;;;21.00;99.90;;;;;;5071714;28;20024;-81
2022/09/14 01:02:14;;;;;;;12.35;2.00;;;20.90;99.90;;;;;;5071759;28;20508;-81
2022/09/14 01:04:40;;;;;;;11.82;2.00;;;20.90;99.90;;;;;;5071559;28;20063;-81
2022/09/14 01:07:37;;;;;;;9.88;1.90;;;20.70;99.90;;;;;;5071586;28;20021;-81
2022/09/14 01:10:28;;;;;;;11.07;2.08;;;20.70;99.90;;;;;;5069178;28;20427;-81
2022/09/14 01:13:26;;;;;;;13.15;2.10;;;20.70;99.90;;;;;;5071354;28;20563;-82
2022/09/14 01:16:19;;;;;;;9.35;2.22;;;20.60;99.90;;;;;;5068750;28;20049;-81
2022/09/14 01:19:04;;;;;;;12.73;1.77;;;20.60;99.90;;;;;;5070554;28;20103;-81
2022/09/14 01:21:34;;;;;;;11.90;2.00;;;20.60;99.90;;;;;;5071373;28;20035;-81
2022/09/14 01:24:11;;;;;;;9.15;1.92;;;20.60;99.90;;;;;;5067806;28;20076;-81
2022/09/14 01:27:16;;;;;;;14.05;2.22;;;20.50;99.90;;;;;;5071328;28;20484;-81
2022/09/14 01:29:48;;;;;;;13.18;2.45;;;20.60;99.90;;;;;;5067403;28;20023;-81
2022/09/14 01:32:30;;;;;;;12.30;1.88;;;20.60;99.90;;;;;;5071025;28;20051;-81
2022/09/14 01:35:12;;;;;;;11.02;1.92;;;20.60;99.90;;;;;;5071128;28;20127;-81
2022/09/14 01:38:01;;;;;;;10.68;2.08;;;20.70;99.90;;;;;;5064925;28;20021;-81
2022/09/14 01:40:38;;;;;;;11.20;2.33;;;20.70;99.90;;;;;;5067481;28;20051;-81
2022/09/14 01:43:16;;;;;;;8.85;1.73;;;20.60;99.90;;;;;;5070610;28;20292;-81
2022/09/14 01:45:48;;;;;;;18.77;2.33;;;20.70;99.90;;;;;;5070558;28;20044;-81
2022/09/14 01:48:19;;;;;;;15.32;2.50;;;20.70;99.90;;;;;;5070894;28;20031;-81
2022/09/14 01:50:50;;;;;;;17.90;2.88;;;20.60;99.90;;;;;;5070807;28;20024;-81
2022/09/14 01:53:39;;;;;;;12.65;2.03;;;20.60;99.90;;;;;;5064087;28;20531;-81
2022/09/14 01:56:19;;;;;;;14.77;2.47;;;20.60;99.90;;;;;;5067551;28;20033;-81
2022/09/14 01:58:47;;;;;;;14.45;2.35;;;20.60;99.90;;;;;;5070866;28;20101;-81
2022/09/14 02:01:21;;;;;;;13.73;2.33;;;20.60;99.90;;;;;;5070465;28;20028;-81
2022/09/14 02:03:50;;;;;;;18.75;3.00;;;20.60;99.90;;;;;;5069227;28;20031;-81
2022/09/14 02:06:34;;;;;;;14.85;2.28;;;20.60;99.90;;;;;;5070679;28;20393;-82
2022/09/14 02:09:01;;;;;;;16.77;2.90;;;20.50;99.90;;;;;;5065044;28;20051;-82
2022/09/14 02:11:26;;;;;;;12.23;2.50;;;20.50;99.90;;;;;;5070308;28;20048;-81
2022/09/14 02:13:52;;;;;;;12.30;2.50;;;20.50;99.90;;;;;;5070572;28;20393;-82
2022/09/14 02:16:20;;;;;;;14.65;2.88;;;20.60;99.90;;;;;;5070355;28;20547;-82
2022/09/14 02:18:45;;;;;;;12.48;2.28;;;20.60;99.90;;;;;;5069052;28;20205;-81
2022/09/14 02:21:21;;;;;;;14.68;2.55;;;20.60;99.90;;;;;;5063992;28;20127;-81
2022/09/14 02:23:50;;;;;;;16.63;3.10;;;20.50;99.90;;;;;;5068657;28;20065;-82
2022/09/14 02:26:18;;;;;;;11.82;2.53;;;20.60;99.90;;;;;;5069801;28;20101;-81
2022/09/14 02:28:44;;;;;;;12.85;2.95;;;20.50;99.90;;;;;;5069923;28;20008;-81
2022/09/14 02:31:43;;;;;;;15.52;2.53;;;20.50;99.90;;;;;;5070113;28;20052;-82
2022/09/14 02:34:32;;;;;;;16.80;2.63;;;20.50;99.90;;;;;;5070077;28;20039;-81
2022/09/14 02:37:36;;;;;;;11.43;2.13;;;20.50;99.90;;;;;;5065129;28;20043;-81
2022/09/14 02:40:20;;;;;;;14.07;3.00;;;20.50;99.90;;;;;;5063417;28;20036;-81
2022/09/14 02:42:58;;;;;;;15.57;2.40;;;20.50;99.90;;;;;;5064742;28;20024;-82
2022/09/14 02:45:45;;;;;;;13.32;2.10;;;20.50;99.90;;;;;;5069619;28;20024;-82
2022/09/14 02:48:34;;;;;;;16.75;3.90;;;20.50;99.90;;;;;;5069969;28;20025;-81
2022/09/14 02:51:16;;;;;;;13.38;3.28;;;20.40;99.90;;;;;;5046400;28;20070;-81
2022/09/14 02:53:47;;;;;;;12.85;2.22;;;20.40;99.90;;;;;;5069803;28;20012;-81
2022/09/14 02:56:13;;;;;;;14.65;3.17;;;20.40;99.90;;;;;;5069432;28;20075;-82
2022/09/14 02:58:44;;;;;;;13.10;2.88;;;20.40;99.90;;;;;;5069898;28;20027;-81
2022/09/14 03:01:15;;;;;;;14.30;2.90;;;20.40;99.90;;;;;;5069634;28;20420;-81
2022/09/14 03:03:40;;;;;;;20.08;3.38;;;20.30;99.90;;;;;;5068034;28;20036;-81
2022/09/14 03:06:06;;;;;;;13.45;2.03;;;20.20;99.90;;;;;;5068630;28;20031;-81
2022/09/14 03:08:32;;;;;;;15.80;2.75;;;20.20;99.90;;;;;;5069366;28;20044;-81
2022/09/14 03:10:58;;;;;;;15.10;2.72;;;20.20;99.90;;;;;;5069794;28;20025;-81
2022/09/14 03:13:24;;;;;;;14.63;2.28;;;20.20;99.90;;;;;;5069133;28;20397;-81
2022/09/14 03:15:50;;;;;;;10.77;2.67;;;20.20;99.90;;;;;;5069540;28;20040;-81
2022/09/14 03:18:16;;;;;;;16.20;2.33;;;20.20;99.90;;;;;;5069561;28;20020;-80
2022/09/14 03:20:42;;;;;;;11.55;2.38;;;20.20;99.90;;;;;;5069729;28;20028;-81
2022/09/14 03:23:09;;;;;;;15.40;2.40;;;20.30;99.90;;;;;;5068191;28;20060;-81
2022/09/14 03:25:37;;;;;;;16.90;3.03;;;20.30;99.90;;;;;;5069379;28;20460;-81
2022/09/14 03:28:04;;;;;;;16.13;3.33;;;20.20;99.90;;;;;;5068990;28;20025;-80
2022/09/14 03:30:30;;;;;;;11.57;2.25;;;20.20;99.90;;;;;;5069248;28;20024;-81
2022/09/14 03:32:57;;;;;;;20.25;3.25;;;20.20;99.90;;;;;;5069273;28;20064;-81
2022/09/14 03:35:23;;;;;;;17.38;3.15;;;20.20;99.90;;;;;;5069405;28;20025;-82
2022/09/14 03:37:49;;;;;;;9.73;2.08;;;20.10;99.90;;;;;;5069385;28;20075;-81
2022/09/14 03:40:16;;;;;;;15.90;2.70;;;20.10;99.90;;;;;;5069543;28;20025;-81
2022/09/14 03:42:47;;;;;;;13.30;2.22;;;20.10;99.90;;;;;;5062094;28;20081;-81
2022/09/14 03:45:14;;;;;;;10.57;2.10;;;20.10;99.90;;;;;;5069187;28;20064;-81
2022/09/14 03:47:40;;;;;;;12.40;2.50;;;20.10;99.90;;;;;;5069215;28;20027;-80
2022/09/14 03:50:07;;;;;;;11.07;2.40;;;20.10;99.90;;;;;;5069055;28;20031;-81
2022/09/14 03:52:34;;;;;;;11.70;2.13;;;20.00;99.90;;;;;;5068947;28;20024;-81
2022/09/14 03:54:59;;;;;;;9.57;2.10;;;20.00;99.90;;;;;;5069173;28;20366;-81
2022/09/14 03:57:25;;;;;;;10.30;2.15;;;20.00;99.90;;;;;;5068891;28;20137;-81
2022/09/14 03:59:51;;;;;;;14.25;2.40;;;20.10;99.90;;;;;;5061967;28;20016;-82
2022/09/14 04:02:17;;;;;;;7.63;2.85;;;20.10;99.90;;;;;;5057581;28;20601;-82
2022/09/14 04:04:42;;;;;;;12.25;2.58;;;20.10;99.90;;;;;;5069118;28;20109;-81
2022/09/14 04:07:08;;;;;;;9.32;2.45;;;20.10;99.90;;;;;;5069107;28;20019;-81
2022/09/14 04:09:34;;;;;;;9.75;2.20;;;20.10;99.90;;;;;;5068847;28;20025;-81
2022/09/14 04:11:59;;;;;;;11.88;2.10;;;20.10;99.90;;;;;;5068585;28;20019;-81
2022/09/14 04:14:25;;;;;;;11.20;1.85;;;20.10;99.90;;;;;;5069005;28;20107;-81
2022/09/14 04:16:51;;;;;;;8.98;2.17;;;20.20;99.90;;;;;;5070143;28;20051;-81
2022/09/14 04:19:17;;;;;;;5.68;2.10;;;20.10;99.90;;;;;;5072774;28;20024;-81
2022/09/14 04:21:42;;;;;;;9.30;2.60;;;20.10;99.90;;;;;;5071057;28;20036;-81
2022/09/14 04:24:12;;;;;;;12.40;2.42;;;20.10;99.90;;;;;;5072638;28;20027;-81
2022/09/14 04:26:38;;;;;;;13.20;2.72;;;20.10;99.90;;;;;;5071999;28;20013;-81
2022/09/14 04:29:04;;;;;;;10.50;2.30;;;20.10;99.90;;;;;;5072281;28;20024;-81
2022/09/14 04:31:31;;;;;;;9.48;2.20;;;20.10;99.90;;;;;;5072155;28;20056;-81
2022/09/14 04:33:57;;;;;;;8.93;1.92;;;20.10;99.90;;;;;;5072221;28;20137;-81
2022/09/14 04:36:29;;;;;;;8.23;2.30;;;20.10;99.90;;;;;;5072544;28;20065;-81
2022/09/14 04:38:58;;;;;;;6.32;2.03;;;20.10;99.90;;;;;;5072445;28;20099;-81
2022/09/14 04:41:24;;;;;;;10.68;2.70;;;20.10;99.90;;;;;;5072064;28;20074;-81
2022/09/14 04:43:51;;;;;;;14.65;2.45;;;20.10;99.90;;;;;;5072349;28;20397;-81
2022/09/14 04:46:21;;;;;;;12.32;2.70;;;20.10;99.90;;;;;;5072168;28;20044;-79
2022/09/14 04:48:48;;;;;;;11.23;2.13;;;20.10;99.90;;;;;;5072057;28;20020;-81
2022/09/14 04:51:19;;;;;;;13.13;2.88;;;20.00;99.90;;;;;;5070587;28;20031;-80
2022/09/14 04:53:48;;;;;;;9.70;2.58;;;20.10;99.90;;;;;;5073538;28;20107;-81
2022/09/14 04:56:15;;;;;;;10.10;2.45;;;20.00;99.90;;;;;;5082064;28;20047;-81
2022/09/14 04:58:44;;;;;;;9.93;2.47;;;20.00;99.90;;;;;;5076102;28;20024;-81
2022/09/14 05:01:12;;;;;;;9.35;2.47;;;20.00;99.90;;;;;;5073520;28;20020;-81
2022/09/14 05:03:38;;;;;;;11.60;2.65;;;20.00;99.90;;;;;;5071872;28;20077;-80
2022/09/14 05:06:06;;;;;;;9.63;2.53;;;20.00;99.90;;;;;;5078893;28;20020;-82
2022/09/14 05:08:34;;;;;;;10.07;2.60;;;20.10;99.90;;;;;;5077352;28;20025;-81
2022/09/14 05:10:59;;;;;;;9.88;2.67;;;20.10;99.90;;;;;;5077786;28;20288;-81
2022/09/14 05:13:25;;;;;;;11.90;2.92;;;20.20;99.90;;;;;;5078441;28;20048;-81
2022/09/14 05:15:51;;;;;;;8.07;2.53;;;20.20;99.90;;;;;;5071042;28;20068;-82
2022/09/14 05:18:18;;;;;;;15.02;2.92;;;20.20;99.90;;;;;;5067204;28;20024;-82
2022/09/14 05:20:43;;;;;;;12.68;3.47;;;20.20;99.90;;;;;;5071106;28;20108;-82
2022/09/14 05:23:09;;;;;;;8.68;2.60;;;20.20;99.90;;;;;;5070939;28;20099;-81
2022/09/14 05:25:35;;;;;;;7.72;2.55;;;20.10;99.90;;;;;;5071249;28;20032;-81
2022/09/14 05:28:00;;;;;;;13.48;3.20;;;20.10;99.90;;;;;;5078125;28;20051;-81
2022/09/14 05:30:26;;;;;;;11.90;2.50;;;20.10;99.90;;;;;;5082465;28;20051;-81
2022/09/14 05:32:52;;;;;;;11.23;3.08;;;20.10;99.90;;;;;;5078548;28;20048;-81
2022/09/14 05:35:18;;;;;;;10.43;2.92;;;20.10;99.90;;;;;;5071221;28;20029;-81
2022/09/14 05:37:43;;;;;;;12.32;3.30;;;20.10;99.90;;;;;;5071162;28;20044;-81
2022/09/14 05:40:10;;;;;;;10.88;3.45;;;20.10;99.90;;;;;;5065102;28;20158;-81
2022/09/14 05:42:35;;;;;;;11.43;3.22;;;20.10;99.90;;;;;;5070734;28;20637;-81
2022/09/14 05:45:01;;;;;;;7.93;2.30;;;20.20;99.90;;;;;;5070615;28;20338;-84
2022/09/14 05:47:30;;;;;;;13.27;2.60;;;20.10;99.90;;;;;;5071461;28;20043;-83
2022/09/14 05:49:56;;;;;;;11.50;3.20;;;20.20;99.90;;;;;;5070669;28;20043;-83
2022/09/14 05:52:23;;;;;;;12.40;3.38;;;20.20;99.90;;;;;;5070758;28;20025;-83
2022/09/14 05:54:49;;;;;;;9.93;3.50;;;20.20;99.90;;;;;;5070605;28;20020;-83
2022/09/14 05:57:14;;;;;;;10.77;2.85;;;20.20;99.90;;;;;;5070272;28;20025;-83
2022/09/14 05:59:40;;;;;;;9.85;2.90;;;20.30;99.90;;;;;;5070580;28;20027;-83
2022/09/14 06:02:08;;;;;;;11.82;3.28;;;20.30;99.90;;;;;;5070556;28;20020;-83
2022/09/14 06:04:35;;;;;;;12.15;3.55;;;20.40;99.90;;;;;;5070375;28;20031;-83
2022/09/14 06:07:00;;;;;;;10.82;3.58;;;20.40;99.90;;;;;;5070508;28;20044;-84
2022/09/14 06:09:26;;;;;;;13.20;3.72;;;20.40;99.90;;;;;;5070317;28;20071;-84
2022/09/14 06:11:51;;;;;;;10.95;3.75;;;20.40;99.90;;;;;;5069806;28;20380;-83
2022/09/14 06:14:18;;;;;;;15.50;4.65;;;20.50;99.90;;;;;;5070385;28;20043;-83
2022/09/14 06:16:45;;;;;;;18.67;4.45;;;20.60;99.90;;;;;;5070263;28;20127;-84
2022/09/14 06:19:11;;;;;;;14.65;4.10;;;20.70;99.90;;;;;;5070231;28;20401;-84
2022/09/14 06:21:36;;;;;;;12.07;3.88;;;20.70;99.90;;;;;;5070338;28;20063;-83
2022/09/14 06:24:03;;;;;;;11.25;4.63;;;20.80;99.90;;;;;;5069989;28;20021;-83
2022/09/14 06:26:28;;;;;;;12.00;4.53;;;20.80;99.90;;;;;;5069897;28;20478;-83
2022/09/14 06:28:54;;;;;;;13.38;4.10;;;20.80;99.90;;;;;;5068404;28;20020;-83
2022/09/14 06:31:21;;;;;;;13.32;4.05;;;20.90;99.90;;;;;;5069815;28;20043;-83
2022/09/14 06:33:48;;;;;;;12.02;4.28;;;21.00;99.90;;;;;;5069907;28;20043;-83
2022/09/14 06:36:18;;;;;;;8.98;4.35;;;21.10;99.90;;;;;;5069949;28;20032;-84
2022/09/14 06:38:45;;;;;;;13.65;4.32;;;21.10;99.90;;;;;;5069885;28;20044;-83
2022/09/14 06:41:13;;;;;;;10.32;4.55;;;21.10;99.90;;;;;;5069514;28;20484;-83
2022/09/14 06:43:40;;;;;;;14.68;4.57;;;21.20;99.90;;;;;;5069877;28;20027;-82
2022/09/14 06:46:08;;;;;;;12.27;4.50;;;21.20;99.90;;;;;;5064834;28;20476;-83
2022/09/14 06:48:40;;;;;;;9.57;3.95;;;21.20;99.90;;;;;;5069609;28;20020;-83
2022/09/14 06:51:17;;;;;;;13.95;4.57;;;21.30;99.90;;;;;;5069420;28;20027;-83
2022/09/14 06:53:44;;;;;;;13.80;4.68;;;21.40;99.90;;;;;;5069428;28;20025;-83
2022/09/14 06:56:11;;;;;;;15.35;5.95;;;21.40;99.90;;;;;;5069883;28;20391;-83
2022/09/14 06:58:36;;;;;;;12.98;5.13;;;21.40;99.90;;;;;;5043797;28;20044;-83
2022/09/14 07:01:04;;;;;;;12.23;5.13;;;21.50;99.90;;;;;;5069351;28;20032;-82
2022/09/14 07:03:30;;;;;;;15.23;5.40;;;21.50;99.90;;;;;;5068413;28;20020;-83
2022/09/14 07:06:12;;;;;;;18.25;7.60;;;21.50;99.90;;;;;;5066270;28;20095;-83
2022/09/14 07:08:38;;;;;;;21.08;7.70;;;21.50;99.90;;;;;;5067219;28;20066;-83
2022/09/14 07:11:08;;;;;;;20.75;7.65;;;21.50;99.90;;;;;;5072872;28;20027;-85
2022/09/14 07:13:34;;;;;;;16.98;6.85;;;21.50;99.90;;;;;;5066018;28;20078;-84
2022/09/14 07:16:00;;;;;;;14.13;6.35;;;21.60;99.90;;;;;;5066182;28;20043;-83
2022/09/14 07:18:27;;;;;;;21.15;6.95;;;21.60;99.90;;;;;;5066173;28;20408;-83
2022/09/14 07:20:54;;;;;;;15.45;7.00;;;21.70;99.90;;;;;;5064399;28;20036;-83
2022/09/14 07:23:19;;;;;;;17.13;7.65;;;21.70;99.90;;;;;;5070143;28;20349;-84
2022/09/14 07:25:45;;;;;;;20.13;8.82;;;21.70;99.90;;;;;;5071979;28;20190;-85
2022/09/14 07:28:10;;;;;;;23.52;9.13;;;21.70;99.90;;;;;;5067702;28;20020;-85
2022/09/14 07:30:37;;;;;;;20.58;8.50;;;21.60;99.90;;;;;;5067009;28;20467;-82
2022/09/14 07:33:04;;;;;;;24.17;8.82;;;21.50;99.90;;;;;;5067617;28;20039;-82
2022/09/14 07:35:30;;;;;;;22.80;9.60;;;21.60;99.90;;;;;;5066318;28;20024;-83
2022/09/14 07:37:56;;;;;;;19.52;9.25;;;21.50;99.90;;;;;;5065358;28;20024;-83
2022/09/14 07:40:22;;;;;;;21.15;9.57;;;21.50;99.90;;;;;;5068313;28;20039;-83
2022/09/14 07:42:52;;;;;;;22.75;10.85;;;21.50;99.90;;;;;;5072890;28;20117;-83
2022/09/14 07:45:17;;;;;;;31.13;11.73;;;21.50;99.90;;;;;;5074056;28;20025;-83
2022/09/14 07:47:43;;;;;;;24.33;11.52;;;21.50;99.90;;;;;;5079606;28;20094;-83
2022/09/14 07:50:09;;;;;;;26.08;11.23;;;21.50;99.90;;;;;;5079749;28;20044;-83
2022/09/14 07:52:34;;;;;;;26.05;11.43;;;21.60;99.90;;;;;;5079769;28;20032;-83
2022/09/14 07:55:00;;;;;;;26.08;10.18;;;21.70;99.90;;;;;;5081326;28;20355;-82
2022/09/14 07:57:26;;;;;;;21.80;10.35;;;21.70;99.90;;;;;;5080851;28;20016;-83
2022/09/14 07:59:52;;;;;;;24.48;11.40;;;21.70;99.90;;;;;;5077497;28;20047;-82
2022/09/14 08:02:18;;;;;;;23.88;11.88;;;21.90;99.90;;;;;;5074458;28;20017;-83
2022/09/14 08:04:43;;;;;;;24.20;11.45;;;22.20;99.90;;;;;;5072275;28;20028;-82
2022/09/14 08:07:09;;;;;;;31.10;15.15;;;22.40;99.90;;;;;;5081432;28;20254;-83
2022/09/14 08:09:37;;;;;;;37.33;16.88;;;22.60;99.90;;;;;;5080278;28;20029;-83
2022/09/14 08:12:04;;;;;;;34.45;16.80;;;22.60;99.90;;;;;;5084054;28;20020;-83
2022/09/14 08:14:30;;;;;;;40.80;19.73;;;22.60;99.90;;;;;;5077537;28;20039;-82
2022/09/14 08:16:56;;;;;;;35.72;19.27;;;22.70;99.90;;;;;;5078947;28;20016;-83
2022/09/14 08:19:21;;;;;;;48.38;21.10;;;22.70;99.90;;;;;;5083205;28;20118;-82
2022/09/14 08:21:47;;;;;;;36.50;20.25;;;22.80;99.90;;;;;;5074393;28;20059;-83
2022/09/14 08:24:18;;;;;;;42.83;21.42;;;22.80;99.90;;;;;;5072521;28;20095;-83
2022/09/14 08:26:45;;;;;;;37.42;21.05;;;22.80;99.90;;;;;;5071906;28;20013;-83
2022/09/14 08:29:12;;;;;;;49.83;24.23;;;22.90;99.90;;;;;;5072254;28;20036;-84
2022/09/14 08:31:38;;;;;;;46.78;23.50;;;23.10;99.90;;;;;;5072139;28;20129;-85
2022/09/14 08:34:05;;;;;;;56.38;24.92;;;23.20;99.90;;;;;;5072335;28;20110;-86
2022/09/14 08:36:33;;;;;;;52.22;28.40;;;23.30;99.90;;;;;;5072192;28;20578;-84
2022/09/14 08:39:00;;;;;;;52.42;27.10;;;23.40;99.90;;;;;;5070505;28;20025;-85
2022/09/14 08:41:28;;;;;;;50.83;28.90;;;23.50;99.90;;;;;;5071756;28;20055;-86
2022/09/14 08:44:19;;;;;;;52.30;30.17;;;23.60;99.90;;;;;;5072061;28;20044;-85
2022/09/14 08:46:50;;;;;;;59.28;31.02;;;23.80;99.90;;;;;;5051953;28;20041;-83
2022/09/14 08:49:41;;;;;;;57.30;29.92;;;24.00;99.90;;;;;;5070519;28;20150;-84
2022/09/14 08:52:18;;;;;;;53.90;29.45;;;24.20;99.90;;;;;;5067872;28;20126;-84
2022/09/14 08:54:46;;;;;;;52.85;29.83;;;24.40;99.90;;;;;;5071981;28;20025;-83
2022/09/14 08:57:32;;;;;;;57.40;29.80;;;24.60;99.90;;;;;;5071403;28;20021;-83
2022/09/14 09:00:12;;;;;;;54.70;28.00;;;24.90;99.90;;;;;;5065070;28;20020;-83
2022/09/14 09:03:02;;;;;;;48.70;27.95;;;25.00;99.90;;;;;;5104173;28;20064;-83
2022/09/14 09:05:53;;;;;;;53.08;27.73;;;25.10;99.90;;;;;;5069824;28;20050;-83
2022/09/14 09:08:27;;;;;;;61.95;28.20;;;25.00;99.90;;;;;;5069952;28;20016;-86
2022/09/14 09:10:54;;;;;;;53.72;27.00;;;24.80;99.90;;;;;;5072201;28;20349;-82
2022/09/14 09:13:22;;;;;;;47.83;25.60;;;24.60;99.90;;;;;;5072058;28;20056;-82
2022/09/14 09:15:54;;;;;;;49.40;25.60;;;24.40;99.90;;;;;;5071140;28;20083;-85
2022/09/14 09:18:38;;;;;;;47.95;26.65;;;24.40;99.90;;;;;;5072045;28;20580;-82
2022/09/14 09:21:11;;;;;;;52.83;26.40;;;24.20;99.90;;;;;;5071180;28;20108;-88
2022/09/14 09:23:38;;;;;;;49.47;26.77;;;24.20;99.90;;;;;;5073549;28;20027;-82
2022/09/14 09:26:10;;;;;;;48.28;24.42;;;24.20;99.90;;;;;;5072419;28;20031;-83
2022/09/14 09:28:57;;;;;;;47.05;23.95;;;24.30;99.90;;;;;;5071656;28;20408;-82
2022/09/14 09:31:34;;;;;;;47.72;24.27;;;24.40;99.90;;;;;;5070542;28;20537;-83
2022/09/14 09:34:01;;;;;;;49.90;22.42;;;24.40;99.90;;;;;;5069005;28;20104;-84
2022/09/14 09:36:35;;;;;;;45.00;20.85;;;24.50;99.90;;;;;;5070530;28;20095;-83
2022/09/14 09:39:02;;;;;;;43.85;21.05;;;24.50;99.90;;;;;;5069275;28;20523;-83
2022/09/14 09:41:42;;;;;;;38.53;18.40;;;24.50;99.90;;;;;;5070763;28;20024;-83
2022/09/14 09:44:09;;;;;;;32.35;16.52;;;24.60;99.90;;;;;;5071174;28;20107;-83
2022/09/14 09:46:37;;;;;;;36.92;16.95;;;24.60;99.90;;;;;;5069184;28;20077;-83
2022/09/14 09:49:19;;;;;;;32.63;15.38;;;24.70;99.90;;;;;;5069456;28;20028;-82
2022/09/14 09:51:45;;;;;;;31.80;14.52;;;24.80;99.90;;;;;;5070804;28;20025;-82
2022/09/14 09:54:14;;;;;;;31.02;15.32;;;25.10;99.90;;;;;;5070670;28;20036;-84
2022/09/14 09:57:16;;;;;;;37.95;15.38;;;25.20;99.90;;;;;;5070158;28;20036;-83
2022/09/14 09:59:45;;;;;;;27.88;12.07;;;25.30;99.90;;;;;;5025587;28;20674;-83
2022/09/14 10:02:19;;;;;;;27.38;11.45;;;25.70;99.90;;;;;;5062737;28;20055;-82
2022/09/14 10:05:02;;;;;;;27.13;10.93;;;25.70;99.90;;;;;;5070513;28;20028;-81
2022/09/14 10:07:30;;;;;;;23.02;10.13;;;25.40;99.90;;;;;;5064837;28;20029;-84
2022/09/14 10:10:08;;;;;;;20.95;8.35;;;25.20;99.90;;;;;;5070436;28;20029;-83
2022/09/14 10:12:36;;;;;;;18.60;7.63;;;25.00;99.90;;;;;;5070179;28;20085;-82
2022/09/14 10:15:11;;;;;;;20.42;6.60;;;24.80;99.90;;;;;;5069529;28;20039;-82
2022/09/14 10:17:36;;;;;;;19.80;6.68;;;24.90;99.90;;;;;;5070304;28;20062;-82
2022/09/14 10:20:03;;;;;;;13.80;5.63;;;25.10;99.90;;;;;;5070071;28;20070;-82
2022/09/14 10:22:31;;;;;;;15.63;4.95;;;25.20;99.90;;;;;;5070834;28;20103;-83
2022/09/14 10:25:00;;;;;;;19.27;5.25;;;25.30;99.90;;;;;;5071682;28;20039;-82
2022/09/14 10:27:38;;;;;;;16.27;5.05;;;25.50;99.90;;;;;;5069199;28;20385;-82
2022/09/14 10:30:06;;;;;;;12.63;4.00;;;25.60;99.90;;;;;;5067550;28;20032;-82
2022/09/14 10:32:33;;;;;;;14.35;4.22;;;25.70;99.90;;;;;;5070028;28;20036;-82
2022/09/14 10:34:58;;;;;;;16.10;4.53;;;26.00;99.90;;;;;;5069901;28;20044;-83
2022/09/14 10:37:30;;;;;;;17.38;4.25;;;26.10;99.90;;;;;;5069832;28;20017;-82
2022/09/14 10:40:23;;;;;;;15.15;3.83;;;26.40;99.90;;;;;;5069519;28;20032;-82
2022/09/14 10:42:49;;;;;;;12.27;3.60;;;26.00;99.90;;;;;;5066576;28;20059;-81
2022/09/14 10:45:30;;;;;;;14.63;3.40;;;25.60;99.90;;;;;;5069857;28;20528;-82
2022/09/14 10:48:05;;;;;;;11.65;2.90;;;25.50;99.90;;;;;;5066752;28;20095;-81
2022/09/14 10:50:39;;;;;;;11.85;3.28;;;25.50;99.90;;;;;;5075401;28;20243;-81
2022/09/14 10:53:30;;;;;;;12.20;2.85;;;25.40;99.90;;;;;;5079860;28;20020;-82
2022/09/14 10:56:01;;;;;;;8.90;2.80;;;25.30;99.90;;;;;;5067934;28;20554;-88
2022/09/14 10:58:39;;;;;;;10.25;2.92;;;25.40;99.90;;;;;;5063563;28;20029;-81
2022/09/14 11:01:26;;;;;;;18.85;3.10;;;25.50;99.90;;;;;;5069671;28;20377;-82
2022/09/14 11:04:10;;;;;;;10.90;2.58;;;25.50;99.90;;;;;;5069578;28;20031;-82
2022/09/14 11:06:50;;;;;;;10.95;2.67;;;25.70;99.90;;;;;;5069559;28;20056;-82
2022/09/14 11:09:29;;;;;;;28.48;3.75;;;25.70;99.90;;;;;;5066273;28;20025;-82
2022/09/14 11:12:05;;;;;;;12.35;2.50;;;25.70;99.90;;;;;;5075025;28;20481;-83
2022/09/14 11:14:52;;;;;;;11.02;2.25;;;25.70;99.90;;;;;;5080882;28;20020;-82
2022/09/14 11:17:39;;;;;;;8.43;1.67;;;25.90;99.90;;;;;;5113331;28;20239;-83
2022/09/14 11:20:34;;;;;;;9.68;2.28;;;26.00;99.90;;;;;;5080745;28;20018;-83
2022/09/14 11:23:45;;;;;;;11.75;1.95;;;26.10;99.90;;;;;;5077181;28;20040;-84
2022/09/14 11:26:18;;;;;;;6.45;1.45;;;26.10;99.90;;;;;;5048310;28;20031;-87
2022/09/14 11:28:54;;;;;;;23.35;3.50;;;26.10;99.90;;;;;;5068717;28;20067;-82
2022/09/14 11:31:28;;;;;;;9.98;2.15;;;26.30;99.90;;;;;;5073163;28;20036;-84
2022/09/14 11:34:00;;;;;;;7.28;1.48;;;26.40;99.90;;;;;;5070577;28;20020;-87
2022/09/14 11:36:31;;;;;;;9.40;1.73;;;26.50;99.90;;;;;;5072720;28;20075;-83
2022/09/14 11:39:03;;;;;;;3.92;1.20;;;26.50;99.90;;;;;;5071033;28;20052;-83
2022/09/14 11:41:35;;;;;;;7.20;1.30;;;26.40;99.90;;;;;;5073327;28;20025;-92
2022/09/14 11:44:09;;;;;;;10.23;1.65;;;26.10;99.90;;;;;;5068202;28;20013;-82
2022/09/14 11:47:06;;;;;;;12.25;2.22;;;26.30;99.90;;;;;;5072809;28;20095;-83
2022/09/14 11:50:00;;;;;;;7.35;1.75;;;26.50;99.90;;;;;;5072646;28;20558;-83
2022/09/14 11:52:30;;;;;;;6.20;1.80;;;26.50;99.90;;;;;;5072951;28;20519;-84
2022/09/14 11:54:57;;;;;;;9.38;1.75;;;26.10;99.90;;;;;;5072613;28;20031;-87
2022/09/14 11:57:26;;;;;;;7.95;1.67;;;26.10;99.90;;;;;;5072207;28;20405;-83
2022/09/14 12:00:00;;;;;;;8.80;2.22;;;26.40;99.90;;;;;;5068010;28;20104;-84
2022/09/14 12:02:26;;;;;;;9.35;2.08;;;26.40;99.90;;;;;;5072629;28;20039;-88
2022/09/14 12:05:17;;;;;;;12.70;1.83;;;26.30;99.90;;;;;;5082206;28;20020;-84
2022/09/14 12:07:46;;;;;;;12.65;2.03;;;26.20;99.90;;;;;;5083000;28;20059;-84
2022/09/14 12:10:17;;;;;;;11.75;1.75;;;26.10;99.90;;;;;;5081597;28;20178;-84
2022/09/14 12:13:07;;;;;;;7.80;1.52;;;26.00;99.90;;;;;;5083713;28;20080;-84
2022/09/14 12:15:37;;;;;;;6.55;1.70;;;26.00;99.90;;;;;;5081869;28;20016;-90
2022/09/14 12:18:05;;;;;;;6.38;2.22;;;25.90;99.90;;;;;;5072987;28;20024;-87
2022/09/14 12:20:35;;;;;;;5.82;1.20;;;26.10;99.90;;;;;;5065450;28;20016;-83
2022/09/14 12:23:26;;;;;;;6.30;1.35;;;26.20;99.90;;;;;;5072941;28;20585;-84
2022/09/14 12:26:18;;;;;;;9.60;2.25;;;26.20;99.90;;;;;;5080191;28;20052;-84
2022/09/14 12:28:49;;;;;;;9.93;1.65;;;26.40;99.90;;;;;;5083703;28;20304;-84
2022/09/14 12:31:37;;;;;;;8.10;1.63;;;26.60;99.90;;;;;;5083683;28;20036;-83
2022/09/14 12:34:32;;;;;;;10.65;1.98;;;26.90;99.90;;;;;;5079155;28;20028;-84
2022/09/14 12:37:28;;;;;;;9.27;2.40;;;27.00;99.90;;;;;;5077783;28;20035;-83
2022/09/14 12:40:27;;;;;;;8.60;1.73;;;26.60;99.90;;;;;;5083334;28;20024;-85
2022/09/14 12:42:53;;;;;;;5.85;1.23;;;26.50;99.90;;;;;;5071829;28;20036;-84
2022/09/14 12:45:58;;;;;;;7.07;1.75;;;26.50;99.90;;;;;;5071653;28;20016;-84
2022/09/14 12:48:42;;;;;;;;;;;26.60;99.90;;;;;;5070886;28;20167;-84
2022/09/14 12:51:12;;;;;;;6.35;1.50;;;26.50;99.90;;;;;;5072069;28;19919;-84
2022/09/14 12:53:39;;;;;;;12.93;1.70;;;26.30;99.90;;;;;;5070419;28;20024;-85
2022/09/14 12:56:17;;;;;;;8.57;1.63;;;26.20;99.90;;;;;;5071431;28;20081;-85
2022/09/14 12:58:52;;;;;;;11.02;1.70;;;26.30;99.90;;;;;;5071911;28;20191;-91
2022/09/14 13:01:36;;;;;;;6.80;1.25;;;26.50;99.90;;;;;;5109552;28;20561;-87
2022/09/14 13:04:04;;;;;;;10.27;1.35;;;26.20;99.90;;;;;;5070828;28;20032;-87